Time;durP1;ratioP1;P1;durP2;ratioP2;P2;SDS_P1;SDS_P2;PMS_P1;PMS_P2;Temp;Humidity;BMP_temperature;BMP_pressure;BME280_temperature;BME280_humidity;BME280_pressure;Samples;Min_cycle;Max_cycle;Signal;HPM_P1;HPM_P2
2022/05/02 00:01:17;;;;;;;0.82;0.82;;;12.10;99.90;;;;;;5126888;28;20344;-75
2022/05/02 00:03:53;;;;;;;1.60;1.50;;;12.00;99.90;;;;;;5159001;28;20041;-79
2022/05/02 00:06:26;;;;;;;1.05;1.05;;;12.00;99.90;;;;;;5149232;28;20350;-79
2022/05/02 00:08:58;;;;;;;1.15;1.15;;;12.10;99.90;;;;;;5161087;28;20027;-78
2022/05/02 00:11:29;;;;;;;1.65;1.63;;;12.10;99.90;;;;;;5145687;28;20068;-77
2022/05/02 00:14:00;;;;;;;1.00;1.00;;;12.20;99.90;;;;;;5142497;28;20040;-77
2022/05/02 00:16:36;;;;;;;1.10;1.10;;;12.10;99.90;;;;;;5160765;28;20028;-77
2022/05/02 00:19:07;;;;;;;0.73;0.73;;;12.20;99.90;;;;;;5155173;28;20018;-77
2022/05/02 00:21:38;;;;;;;0.85;0.85;;;12.20;99.90;;;;;;5159518;28;20251;-76
2022/05/02 00:24:13;;;;;;;1.10;1.05;;;12.30;99.90;;;;;;5159705;28;20034;-76
2022/05/02 00:26:44;;;;;;;;;;;12.30;99.90;;;;;;5160639;28;20034;-77
2022/05/02 00:29:22;;;;;;;1.20;1.20;;;12.30;99.90;;;;;;5142289;28;20178;-77
2022/05/02 00:31:56;;;;;;;0.90;0.90;;;12.20;99.90;;;;;;5129776;28;20042;-77
2022/05/02 00:34:32;;;;;;;0.98;0.98;;;12.20;99.90;;;;;;5160493;28;21564;-77
2022/05/02 00:37:08;;;;;;;0.80;0.80;;;12.10;99.90;;;;;;5143228;28;20320;-78
2022/05/02 00:39:40;;;;;;;0.85;0.85;;;12.00;99.90;;;;;;5140900;28;20225;-76
2022/05/02 00:42:11;;;;;;;0.70;0.70;;;12.00;99.90;;;;;;5152168;28;20041;-77
2022/05/02 00:44:45;;;;;;;1.10;1.10;;;11.90;99.90;;;;;;5153732;28;20054;-78
2022/05/02 00:47:20;;;;;;;0.63;0.63;;;11.80;99.90;;;;;;5139051;28;20035;-78
2022/05/02 00:49:57;;;;;;;0.80;0.80;;;11.70;99.90;;;;;;5140508;28;20042;-77
2022/05/02 00:52:28;;;;;;;1.05;1.05;;;11.60;99.90;;;;;;5151075;28;20275;-77
2022/05/02 00:55:03;;;;;;;0.85;0.85;;;11.50;99.90;;;;;;5160275;28;20022;-77
2022/05/02 00:57:40;;;;;;;0.75;0.75;;;11.40;99.90;;;;;;5159758;28;20030;-77
2022/05/02 01:00:14;;;;;;;1.50;1.40;;;11.30;99.90;;;;;;5144213;28;20065;-77
2022/05/02 01:02:50;;;;;;;0.80;0.80;;;11.20;99.90;;;;;;5141672;28;20342;-79
2022/05/02 01:05:22;;;;;;;0.60;0.60;;;11.10;99.90;;;;;;5134301;28;20407;-77
2022/05/02 01:07:58;;;;;;;0.85;0.85;;;11.10;99.90;;;;;;5158218;28;20354;-77
2022/05/02 01:10:31;;;;;;;0.90;0.90;;;11.10;99.90;;;;;;5172268;28;20037;-76
2022/05/02 01:13:04;;;;;;;1.27;1.27;;;11.10;99.90;;;;;;5161503;28;20394;-78
2022/05/02 01:15:36;;;;;;;0.80;0.80;;;11.00;99.90;;;;;;5180570;28;20017;-76
2022/05/02 01:18:09;;;;;;;1.20;1.20;;;11.00;99.90;;;;;;5162268;28;20048;-76
2022/05/02 01:20:45;;;;;;;0.98;0.98;;;11.00;99.90;;;;;;5180472;28;20017;-76
2022/05/02 01:23:19;;;;;;;2.00;1.90;;;11.00;99.90;;;;;;5161056;28;20042;-77
2022/05/02 01:25:51;;;;;;;0.88;0.88;;;11.00;99.90;;;;;;5180024;28;20055;-77
2022/05/02 01:28:25;;;;;;;1.20;1.20;;;11.00;99.90;;;;;;5180429;28;20025;-77
2022/05/02 01:30:57;;;;;;;0.90;0.90;;;11.00;99.90;;;;;;5180093;28;20037;-76
2022/05/02 01:33:28;;;;;;;0.80;0.80;;;11.00;99.90;;;;;;5179913;28;20030;-78
2022/05/02 01:36:00;;;;;;;0.95;0.95;;;10.90;99.90;;;;;;5179473;28;20351;-77
2022/05/02 01:38:31;;;;;;;0.90;0.90;;;10.80;99.90;;;;;;5146679;28;20246;-77
2022/05/02 01:41:04;;;;;;;0.80;0.80;;;10.90;99.90;;;;;;5180223;28;20033;-78
2022/05/02 01:43:36;;;;;;;1.35;1.35;;;10.90;99.90;;;;;;5157151;28;20046;-76
2022/05/02 01:46:12;;;;;;;0.93;0.93;;;10.90;99.90;;;;;;5158734;28;20041;-76
2022/05/02 01:48:44;;;;;;;1.25;1.25;;;10.90;99.90;;;;;;5157732;28;20033;-76
2022/05/02 01:51:18;;;;;;;1.00;1.00;;;10.90;99.90;;;;;;5160928;28;20043;-74
2022/05/02 01:53:49;;;;;;;0.88;0.88;;;11.00;99.90;;;;;;5161467;28;20045;-76
2022/05/02 01:56:20;;;;;;;1.60;1.52;;;11.00;99.90;;;;;;5152868;28;20026;-75
2022/05/02 01:58:52;;;;;;;0.95;0.95;;;11.10;99.90;;;;;;5173748;28;20326;-77
2022/05/02 02:01:24;;;;;;;1.25;1.25;;;11.10;99.90;;;;;;5183996;28;20022;-78
2022/05/02 02:03:58;;;;;;;0.60;0.60;;;11.00;99.90;;;;;;5197597;28;20036;-77
2022/05/02 02:06:32;;;;;;;1.88;1.77;;;11.00;99.90;;;;;;5188405;28;20042;-77
2022/05/02 02:09:03;;;;;;;1.25;1.25;;;11.00;99.90;;;;;;5198636;28;20668;-76
2022/05/02 02:11:37;;;;;;;1.02;1.02;;;11.00;99.90;;;;;;5196142;28;20044;-76
2022/05/02 02:14:11;;;;;;;2.17;1.98;;;11.00;99.90;;;;;;5184126;28;20338;-77
2022/05/02 02:16:44;;;;;;;1.02;1.02;;;11.00;99.90;;;;;;5182175;28;20371;-76
2022/05/02 02:19:22;;;;;;;1.17;1.17;;;11.00;99.90;;;;;;5160725;28;20037;-78
2022/05/02 02:22:16;;;;;;;1.25;1.25;;;11.00;99.90;;;;;;5175195;28;20049;-77
2022/05/02 02:24:46;;;;;;;1.15;1.15;;;11.00;99.90;;;;;;5183064;28;20411;-80
2022/05/02 02:27:20;;;;;;;1.52;1.52;;;11.10;99.90;;;;;;5183655;28;20040;-76
2022/05/02 02:29:54;;;;;;;1.13;1.13;;;11.00;99.90;;;;;;5181712;28;20339;-77
2022/05/02 02:32:28;;;;;;;;;;;11.10;99.90;;;;;;5178700;28;20373;-76
2022/05/02 02:35:07;;;;;;;1.13;1.13;;;11.10;99.90;;;;;;5165980;28;19901;-77
2022/05/02 02:37:40;;;;;;;1.65;1.58;;;11.10;99.90;;;;;;5184553;28;20022;-78
2022/05/02 02:40:17;;;;;;;0.90;0.90;;;11.10;99.90;;;;;;5179297;28;20041;-77
2022/05/02 02:42:53;;;;;;;0.85;0.85;;;11.10;99.90;;;;;;5178838;28;20501;-76
2022/05/02 02:45:25;;;;;;;1.83;1.73;;;11.00;99.90;;;;;;5182805;28;20038;-77
2022/05/02 02:47:59;;;;;;;0.90;0.90;;;11.00;99.90;;;;;;5183251;28;20040;-76
2022/05/02 02:50:33;;;;;;;1.15;1.15;;;10.90;99.90;;;;;;5183566;28;20026;-77
2022/05/02 02:53:07;;;;;;;1.92;1.85;;;10.80;99.90;;;;;;5184363;28;20034;-77
2022/05/02 02:55:39;;;;;;;1.55;1.55;;;10.80;99.90;;;;;;5182271;28;20052;-77
2022/05/02 02:58:15;;;;;;;1.05;1.05;;;10.70;99.90;;;;;;5182875;28;20032;-77
2022/05/02 03:00:47;;;;;;;0.73;0.73;;;10.50;99.90;;;;;;5183348;28;20235;-76
2022/05/02 03:03:23;;;;;;;1.48;1.48;;;10.50;99.90;;;;;;5165715;28;20029;-78
2022/05/02 03:06:03;;;;;;;0.60;0.60;;;10.30;99.90;;;;;;5154405;28;20068;-77
2022/05/02 03:08:44;;;;;;;1.20;1.20;;;10.10;99.90;;;;;;5165582;28;20370;-76
2022/05/02 03:11:18;;;;;;;1.20;1.20;;;9.90;99.90;;;;;;5178017;28;20045;-75
2022/05/02 03:13:50;;;;;;;0.55;0.55;;;9.70;99.90;;;;;;5182988;28;20297;-77
2022/05/02 03:16:26;;;;;;;1.67;1.58;;;9.60;99.90;;;;;;5183298;28;20034;-77
2022/05/02 03:19:02;;;;;;;0.65;0.65;;;9.40;99.90;;;;;;5146692;28;20058;-76
2022/05/02 03:21:33;;;;;;;0.95;0.95;;;9.50;99.90;;;;;;5173365;28;20209;-76
2022/05/02 03:24:05;;;;;;;1.70;1.00;;;9.50;99.90;;;;;;5146231;28;20277;-76
2022/05/02 03:26:39;;;;;;;1.00;1.00;;;9.50;99.90;;;;;;5164517;28;20038;-75
2022/05/02 03:29:11;;;;;;;0.88;0.88;;;9.60;99.90;;;;;;5166218;28;20046;-77
2022/05/02 03:31:49;;;;;;;0.70;0.70;;;9.60;99.90;;;;;;5181100;28;20043;-77
2022/05/02 03:34:24;;;;;;;0.60;0.60;;;9.80;99.90;;;;;;5163735;28;20220;-75
2022/05/02 03:36:57;;;;;;;1.13;1.13;;;9.90;99.90;;;;;;5164330;28;20229;-77
2022/05/02 03:39:29;;;;;;;0.70;0.70;;;10.10;99.90;;;;;;5162440;28;20026;-77
2022/05/02 03:42:07;;;;;;;0.77;0.77;;;10.00;99.90;;;;;;5179414;28;20037;-77
2022/05/02 03:44:38;;;;;;;0.98;0.98;;;10.00;99.90;;;;;;5184216;28;20036;-77
2022/05/02 03:47:09;;;;;;;1.67;1.67;;;9.80;99.90;;;;;;5165987;28;20037;-79
2022/05/02 03:49:45;;;;;;;0.70;0.70;;;9.70;99.90;;;;;;5165590;28;20029;-77
2022/05/02 03:52:17;;;;;;;0.90;0.90;;;9.60;99.90;;;;;;5176915;28;20034;-76
2022/05/02 03:54:53;;;;;;;0.98;0.98;;;9.50;99.90;;;;;;5161901;28;20217;-76
2022/05/02 03:57:26;;;;;;;0.80;0.80;;;9.40;99.90;;;;;;5174689;28;20042;-78
2022/05/02 04:00:01;;;;;;;1.03;1.03;;;9.40;99.90;;;;;;5180541;28;20034;-77
2022/05/02 04:02:32;;;;;;;1.05;1.05;;;9.30;99.90;;;;;;5181308;28;20034;-75
2022/05/02 04:05:04;;;;;;;0.55;0.55;;;9.30;99.90;;;;;;5147442;28;20257;-77
2022/05/02 04:07:35;;;;;;;1.42;1.33;;;9.20;99.90;;;;;;5145476;28;20250;-77
2022/05/02 04:10:10;;;;;;;1.42;1.42;;;9.40;99.90;;;;;;5156750;28;20252;-78
2022/05/02 04:12:44;;;;;;;1.25;1.25;;;9.40;99.90;;;;;;5162994;28;20046;-78
2022/05/02 04:15:15;;;;;;;0.93;0.93;;;9.50;99.90;;;;;;5162866;28;20034;-76
2022/05/02 04:17:51;;;;;;;0.75;0.75;;;9.60;99.90;;;;;;5161936;28;20026;-78
2022/05/02 04:20:22;;;;;;;0.90;0.90;;;9.60;99.90;;;;;;5129946;28;20034;-77
2022/05/02 04:22:58;;;;;;;1.58;1.58;;;9.70;99.90;;;;;;5149242;28;20034;-76
2022/05/02 04:25:30;;;;;;;1.65;1.60;;;9.70;99.90;;;;;;5154800;28;20033;-78
2022/05/02 04:28:10;;;;;;;0.88;0.88;;;9.70;99.90;;;;;;5146354;28;20030;-77
2022/05/02 04:30:42;;;;;;;1.00;1.00;;;9.70;99.90;;;;;;5159676;28;20265;-77
2022/05/02 04:33:17;;;;;;;1.05;1.05;;;9.70;99.90;;;;;;5144964;28;20041;-76
2022/05/02 04:35:54;;;;;;;1.27;1.27;;;9.70;99.90;;;;;;5159979;28;20024;-77
2022/05/02 04:38:30;;;;;;;0.50;0.50;;;9.90;99.90;;;;;;5145548;28;20040;-76
2022/05/02 04:41:01;;;;;;;1.30;1.20;;;10.00;99.90;;;;;;5143418;28;20040;-77
2022/05/02 04:43:32;;;;;;;2.00;1.90;;;10.00;99.90;;;;;;5109572;28;20308;-76
2022/05/02 04:46:04;;;;;;;0.43;0.43;;;10.10;99.90;;;;;;5139863;28;20034;-76
2022/05/02 04:48:35;;;;;;;1.25;1.25;;;10.10;99.90;;;;;;5140025;28;20023;-76
2022/05/02 04:51:08;;;;;;;1.08;1.08;;;10.20;99.90;;;;;;5138612;28;20034;-76
2022/05/02 04:53:43;;;;;;;0.82;0.82;;;10.30;99.90;;;;;;5157943;28;20047;-76
2022/05/02 04:56:14;;;;;;;0.77;0.77;;;10.40;99.90;;;;;;5156820;28;20042;-76
2022/05/02 04:58:45;;;;;;;0.90;0.90;;;10.50;99.90;;;;;;5143633;28;20064;-76
2022/05/02 05:01:17;;;;;;;1.42;1.40;;;10.70;99.90;;;;;;5142005;28;20355;-77
2022/05/02 05:03:48;;;;;;;0.68;0.68;;;10.80;99.90;;;;;;5151250;28;20024;-74
2022/05/02 05:06:19;;;;;;;1.08;1.08;;;11.00;99.90;;;;;;5154738;28;20062;-77
2022/05/02 05:08:55;;;;;;;1.15;1.15;;;11.20;99.90;;;;;;5177770;28;20275;-77
2022/05/02 05:11:42;;;;;;;0.70;0.70;;;11.40;99.90;;;;;;5157206;28;20426;-77
2022/05/02 05:17:28;;;;;;;1.40;1.40;;;11.80;99.90;;;;;;5170336;28;20059;-76
2022/05/02 05:19:59;;;;;;;0.95;0.95;;;12.00;99.90;;;;;;5181630;28;20040;-76
2022/05/02 05:22:48;;;;;;;1.23;1.23;;;12.30;99.90;;;;;;5178030;28;20335;-77
2022/05/02 05:25:44;;;;;;;1.77;1.67;;;12.70;99.90;;;;;;5180833;28;20029;-77
2022/05/02 05:28:45;;;;;;;1.95;1.85;;;13.00;99.90;;;;;;5178100;28;20095;-79
2022/05/02 05:31:29;;;;;;;2.10;1.90;;;13.40;99.90;;;;;;5180408;28;20043;-76
2022/05/02 05:34:25;;;;;;;1.73;1.63;;;13.70;99.90;;;;;;5181672;28;20033;-78
2022/05/02 05:37:27;;;;;;;1.20;1.20;;;14.00;99.90;;;;;;5162976;28;20247;-78
2022/05/02 05:40:21;;;;;;;1.00;1.00;;;14.30;99.90;;;;;;5164048;28;20169;-78
2022/05/02 05:43:13;;;;;;;1.17;1.17;;;14.80;99.90;;;;;;5172891;28;20947;-76
2022/05/02 05:46:02;;;;;;;0.90;0.90;;;15.20;99.90;;;;;;5169025;28;20037;-79
2022/05/02 05:48:47;;;;;;;1.00;1.00;;;15.40;99.90;;;;;;5146829;28;20326;-75
2022/05/02 05:51:24;;;;;;;;;;;15.80;99.90;;;;;;5164581;28;20328;-80
2022/05/02 05:54:22;;;;;;;0.82;0.82;;;15.90;99.90;;;;;;5181508;28;19902;-78
2022/05/02 05:57:14;;;;;;;2.00;1.90;;;16.20;99.90;;;;;;5181479;28;20030;-77
2022/05/02 06:00:09;;;;;;;1.20;1.20;;;16.70;99.90;;;;;;5181647;28;20040;-77
2022/05/02 06:03:15;;;;;;;1.15;1.15;;;16.60;99.90;;;;;;5181695;28;20017;-77
2022/05/02 06:05:50;;;;;;;1.85;1.75;;;16.60;99.90;;;;;;5170225;28;20367;-78
2022/05/02 06:08:22;;;;;;;1.40;1.40;;;16.10;99.90;;;;;;5157155;28;20030;-76
2022/05/02 06:10:59;;;;;;;0.85;0.85;;;15.80;99.90;;;;;;5160271;28;20022;-77
2022/05/02 06:13:37;;;;;;;1.05;1.05;;;16.00;99.90;;;;;;5176546;28;20038;-79
2022/05/02 06:19:01;;;;;;;1.00;1.00;;;16.20;99.90;;;;;;5181585;28;20296;-79
2022/05/02 06:21:34;;;;;;;0.77;0.77;;;16.40;99.90;;;;;;5181016;28;20034;-77
2022/05/02 06:24:11;;;;;;;0.60;0.60;;;16.50;99.90;;;;;;5180785;28;20022;-74
2022/05/02 06:26:46;;;;;;;1.65;1.60;;;16.40;99.90;;;;;;5180205;28;20041;-77
2022/05/02 06:29:20;;;;;;;1.02;1.02;;;16.10;99.90;;;;;;5171161;28;20034;-79
2022/05/02 06:31:58;;;;;;;1.13;1.13;;;15.60;99.90;;;;;;5162179;28;20021;-77
2022/05/02 06:34:30;;;;;;;1.23;1.23;;;15.60;99.90;;;;;;5177041;28;20038;-76
2022/05/02 06:37:39;;;;;;;1.17;1.17;;;15.40;99.90;;;;;;5146347;28;20023;-77
2022/05/02 06:40:40;;;;;;;2.88;1.88;;;15.60;99.90;;;;;;5172085;28;20022;-77
2022/05/02 06:43:33;;;;;;;1.00;1.00;;;15.60;99.90;;;;;;5166542;28;20048;-78
2022/05/02 06:46:21;;;;;;;0.98;0.98;;;16.30;99.90;;;;;;5186385;28;20075;-77
2022/05/02 06:48:59;;;;;;;1.08;1.08;;;16.40;99.90;;;;;;5167273;28;20046;-80
2022/05/02 06:51:44;;;;;;;1.13;1.13;;;16.60;99.90;;;;;;5184917;28;20033;-77
2022/05/02 06:54:38;;;;;;;;;;;16.80;99.90;;;;;;5164554;28;20032;-79
2022/05/02 06:57:57;;;;;;;0.93;0.93;;;17.00;99.90;;;;;;5178380;28;19913;-77
2022/05/02 07:00:34;;;;;;;0.90;0.90;;;16.80;99.90;;;;;;5129477;28;20245;-79
2022/05/02 07:03:42;;;;;;;0.95;0.95;;;16.90;99.90;;;;;;5163021;28;20050;-80
2022/05/02 07:06:50;;;;;;;0.80;0.80;;;17.50;99.90;;;;;;5117703;28;20077;-77
2022/05/02 07:09:52;;;;;;;0.73;0.73;;;18.30;99.90;;;;;;5176779;28;20343;-77
2022/05/02 07:12:26;;;;;;;0.85;0.85;;;19.00;99.90;;;;;;5184342;28;20029;-78
2022/05/02 07:15:08;;;;;;;0.70;0.70;;;19.50;99.90;;;;;;5182403;28;20040;-76
2022/05/02 07:17:42;;;;;;;0.93;0.93;;;20.10;99.90;;;;;;5182980;28;20124;-77
2022/05/02 07:20:30;;;;;;;1.92;1.30;;;20.40;99.90;;;;;;5165126;28;20037;-77
2022/05/02 07:23:06;;;;;;;1.60;1.50;;;20.50;99.90;;;;;;5183568;28;20040;-77
2022/05/02 07:25:49;;;;;;;1.77;1.67;;;21.40;99.90;;;;;;5184458;28;20030;-78
2022/05/02 07:28:41;;;;;;;0.82;0.82;;;22.20;99.90;;;;;;5193160;28;20040;-78
2022/05/02 07:31:22;;;;;;;1.10;1.10;;;21.20;99.90;;;;;;5178759;28;20036;-77
2022/05/02 07:33:54;;;;;;;1.10;1.10;;;20.40;99.90;;;;;;5190447;28;20021;-78
2022/05/02 07:36:28;;;;;;;1.05;0.73;;;21.00;99.90;;;;;;5176374;28;20028;-78
2022/05/02 07:39:13;;;;;;;1.38;1.27;;;21.30;99.90;;;;;;5169345;28;20282;-78
2022/05/02 07:41:51;;;;;;;1.27;1.27;;;22.10;99.90;;;;;;5174698;28;20027;-75
2022/05/02 07:44:28;;;;;;;0.68;0.68;;;21.90;99.90;;;;;;5134828;28;20547;-78
2022/05/02 07:47:06;;;;;;;0.75;0.75;;;22.10;99.90;;;;;;5165882;28;20355;-79
2022/05/02 07:49:45;;;;;;;0.95;0.95;;;20.80;99.90;;;;;;5181764;28;20217;-78
2022/05/02 07:52:21;;;;;;;0.80;0.80;;;19.80;99.90;;;;;;5181327;28;20330;-78
2022/05/02 07:54:56;;;;;;;0.80;0.80;;;20.00;99.90;;;;;;5175339;28;20304;-76
2022/05/02 07:57:30;;;;;;;0.60;0.60;;;19.70;99.90;;;;;;5170440;28;20044;-78
2022/05/02 08:00:04;;;;;;;0.50;0.50;;;19.80;99.90;;;;;;5168609;28;20034;-80
2022/05/02 08:02:37;;;;;;;1.02;1.02;;;20.50;99.90;;;;;;5162853;28;20042;-78
2022/05/02 08:05:10;;;;;;;1.23;1.13;;;21.60;99.90;;;;;;5154584;28;20053;-76
2022/05/02 08:07:45;;;;;;;1.38;1.27;;;21.80;99.90;;;;;;5181416;28;20314;-78
2022/05/02 08:10:42;;;;;;;2.53;1.88;;;22.80;99.90;;;;;;5163412;28;20373;-78
2022/05/02 08:13:59;;;;;;;0.75;0.75;;;22.70;99.90;;;;;;5158382;28;20034;-76
2022/05/02 08:16:46;;;;;;;0.77;0.77;;;22.40;99.90;;;;;;5130692;28;20043;-76
2022/05/02 08:19:57;;;;;;;0.60;0.60;;;22.40;99.90;;;;;;5121520;28;20352;-77
2022/05/02 08:28:59;;;;;;;0.60;0.60;;;23.50;99.90;;;;;;5125065;28;20050;-77
2022/05/02 08:31:58;;;;;;;0.85;0.85;;;24.10;99.90;;;;;;5132262;28;20219;-75
2022/05/02 08:34:45;;;;;;;0.40;0.40;;;23.30;99.90;;;;;;5120536;28;20326;-77
2022/05/02 08:37:52;;;;;;;0.70;0.70;;;23.60;99.90;;;;;;5101325;28;20035;-77
2022/05/02 08:40:23;;;;;;;1.42;1.33;;;24.50;99.90;;;;;;5128618;28;20038;-79
2022/05/02 08:43:32;;;;;;;1.40;1.40;;;24.00;99.90;;;;;;5138106;28;20038;-78
2022/05/02 08:46:15;;;;;;;1.33;1.23;;;23.10;99.90;;;;;;5138740;28;20030;-75
2022/05/02 08:52:00;;;;;;;0.80;0.80;;;23.20;99.90;;;;;;5129234;28;20035;-76
2022/05/02 08:55:01;;;;;;;0.40;0.40;;;23.60;99.90;;;;;;5169406;28;20048;-76
2022/05/02 08:58:10;;;;;;;0.50;0.50;;;23.80;99.90;;;;;;5174633;28;20152;-81
2022/05/02 09:00:52;;;;;;;0.65;0.65;;;24.00;99.90;;;;;;5159569;28;20032;-79
2022/05/02 09:03:56;;;;;;;0.82;0.82;;;24.70;99.90;;;;;;5171528;28;20026;-79
2022/05/02 09:06:36;;;;;;;0.65;0.65;;;25.50;99.90;;;;;;5142372;28;20460;-77
2022/05/02 09:09:39;;;;;;;0.57;0.57;;;26.20;99.90;;;;;;5175189;28;20320;-77
2022/05/02 09:12:48;;;;;;;0.88;0.88;;;26.50;99.90;;;;;;5170078;28;20034;-76
2022/05/02 09:16:19;;;;;;;1.58;1.48;;;25.80;99.90;;;;;;5177723;28;20235;-77
2022/05/02 09:19:09;;;;;;;0.73;0.73;;;25.70;99.90;;;;;;5107352;29;20046;-78
2022/05/02 09:21:45;;;;;;;1.40;1.13;;;24.80;99.90;;;;;;5090196;29;20047;-77
2022/05/02 09:24:25;;;;;;;0.65;0.65;;;23.90;99.90;;;;;;5115708;29;20074;-77
2022/05/02 09:27:48;;;;;;;0.90;0.90;;;24.30;99.90;;;;;;5117515;29;20043;-77
2022/05/02 09:30:28;;;;;;;0.77;0.77;;;25.00;99.90;;;;;;5043767;29;20348;-77
2022/05/02 09:33:26;;;;;;;0.98;0.98;;;25.90;99.90;;;;;;5059586;29;20040;-78
2022/05/02 09:36:25;;;;;;;1.05;1.00;;;25.70;99.90;;;;;;5047965;29;20233;-78
2022/05/02 09:39:06;;;;;;;0.88;0.88;;;25.70;99.90;;;;;;5024503;29;20505;-78
2022/05/02 09:41:56;;;;;;;1.48;0.98;;;26.30;99.90;;;;;;5039149;29;20094;-76
2022/05/02 09:51:32;;;;;;;1.25;1.15;;;26.40;99.90;;;;;;5026385;29;20034;-77
2022/05/02 09:57:22;;;;;;;0.63;0.63;;;27.30;99.90;;;;;;5035170;29;20299;-78
2022/05/02 10:02:51;;;;;;;0.70;0.70;;;27.70;99.90;;;;;;5074691;29;20031;-79
2022/05/02 10:05:37;;;;;;;1.55;1.45;;;27.40;99.90;;;;;;5094360;28;20042;-78
2022/05/02 10:08:27;;;;;;;0.60;0.60;;;27.20;99.90;;;;;;5180267;28;20033;-76
2022/05/02 10:11:13;;;;;;;1.00;1.00;;;27.40;99.90;;;;;;5180267;28;20192;-81
2022/05/02 10:14:03;;;;;;;0.93;0.93;;;26.90;99.90;;;;;;5179447;28;20044;-77
2022/05/02 10:16:53;;;;;;;1.02;1.02;;;27.20;99.90;;;;;;5164957;28;20216;-77
2022/05/02 10:19:42;;;;;;;0.68;0.68;;;27.40;99.90;;;;;;5167230;28;20034;-78
2022/05/02 10:22:29;;;;;;;1.10;1.10;;;27.60;99.90;;;;;;5180796;28;20209;-79
2022/05/02 10:25:04;;;;;;;4.55;1.58;;;27.70;99.90;;;;;;5162432;28;20336;-77
2022/05/02 10:27:52;;;;;;;1.52;1.42;;;27.90;99.90;;;;;;5156210;28;20048;-75
2022/05/02 10:30:36;;;;;;;0.65;0.65;;;28.60;99.90;;;;;;5183058;28;20013;-78
2022/05/02 10:33:14;;;;;;;0.67;0.67;;;28.90;99.90;;;;;;5155305;28;20034;-78
2022/05/02 10:35:53;;;;;;;1.10;1.02;;;29.70;99.90;;;;;;5182504;28;20029;-77
2022/05/02 10:38:30;;;;;;;1.10;1.10;;;30.90;99.90;;;;;;5168480;28;20049;-79
2022/05/02 10:41:12;;;;;;;1.15;1.10;;;31.70;99.90;;;;;;5174458;28;20052;-77
2022/05/02 10:43:50;;;;;;;0.85;0.85;;;29.60;99.90;;;;;;5182698;28;20608;-78
2022/05/02 10:46:22;;;;;;;0.98;0.98;;;30.70;99.90;;;;;;5166093;28;20018;-79
2022/05/02 10:49:02;;;;;;;0.90;0.90;;;30.70;99.90;;;;;;5175618;28;20021;-78
2022/05/02 10:51:57;;;;;;;0.95;0.90;;;31.60;99.90;;;;;;5172177;28;20024;-77
2022/05/02 10:54:35;;;;;;;0.80;0.80;;;31.70;99.90;;;;;;5177085;28;20026;-79
2022/05/02 10:57:30;;;;;;;1.02;0.98;;;32.50;99.90;;;;;;5167984;28;20159;-78
2022/05/02 11:00:06;;;;;;;2.00;1.90;;;32.60;99.90;;;;;;5186503;28;20247;-79
2022/05/02 11:03:01;;;;;;;1.70;1.63;;;32.10;99.90;;;;;;5165673;28;20022;-79
2022/05/02 11:05:53;;;;;;;0.70;0.70;;;31.10;99.90;;;;;;5160380;28;20064;-78
2022/05/02 11:08:47;;;;;;;1.88;1.00;;;33.70;99.90;;;;;;5182079;28;20026;-80
2022/05/02 11:11:45;;;;;;;1.17;1.17;;;33.40;98.50;;;;;;5182668;28;20029;-79
2022/05/02 11:14:48;;;;;;;0.52;0.52;;;33.50;98.40;;;;;;5166946;28;20042;-79
2022/05/02 11:17:56;;;;;;;1.23;1.05;;;32.70;98.40;;;;;;5168806;28;20038;-81
2022/05/02 11:20:53;;;;;;;1.38;1.38;;;32.40;98.40;;;;;;5178626;28;20026;-79
2022/05/02 11:23:46;;;;;;;0.65;0.65;;;32.80;97.70;;;;;;5161015;28;20033;-79
2022/05/02 11:26:32;;;;;;;1.35;1.05;;;33.60;98.20;;;;;;5177951;28;20044;-81
2022/05/02 11:29:18;;;;;;;1.02;1.02;;;33.70;96.90;;;;;;5177147;28;20032;-78
2022/05/02 11:32:17;;;;;;;0.73;0.73;;;33.00;98.10;;;;;;5174324;28;20028;-79
2022/05/02 11:35:29;;;;;;;0.70;0.70;;;30.00;97.70;;;;;;5156524;28;20248;-78
2022/05/02 11:38:25;;;;;;;0.98;0.98;;;31.70;98.20;;;;;;5174228;28;20141;-81
2022/05/02 11:41:08;;;;;;;0.80;0.80;;;31.90;97.10;;;;;;5163685;28;20034;-82
2022/05/02 11:43:44;;;;;;;0.82;0.82;;;31.70;97.70;;;;;;5161473;28;20048;-79
2022/05/02 11:46:20;;;;;;;1.10;1.08;;;29.80;98.10;;;;;;5145028;28;20042;-80
2022/05/02 11:49:10;;;;;;;0.70;0.70;;;31.00;98.30;;;;;;5161177;28;20038;-78
2022/05/02 11:51:50;;;;;;;0.80;0.80;;;33.10;98.80;;;;;;5176121;28;20044;-81
2022/05/02 11:54:39;;;;;;;0.70;0.70;;;33.70;96.00;;;;;;5165391;28;20639;-80
2022/05/02 11:57:20;;;;;;;0.80;0.80;;;32.20;96.10;;;;;;5164718;28;20214;-81
2022/05/02 12:00:11;;;;;;;0.88;0.88;;;29.90;98.40;;;;;;5165880;28;20040;-83
2022/05/02 12:03:01;;;;;;;0.75;0.75;;;30.30;97.60;;;;;;5167548;28;20086;-81
2022/05/02 12:05:39;;;;;;;0.43;0.43;;;31.30;97.80;;;;;;5138694;28;20061;-83
2022/05/02 12:08:41;;;;;;;0.75;0.75;;;31.30;96.00;;;;;;5186086;28;20338;-82
2022/05/02 12:11:16;;;;;;;0.50;0.50;;;30.00;96.90;;;;;;5184600;28;20312;-81
2022/05/02 12:13:50;;;;;;;0.35;0.35;;;28.00;98.60;;;;;;5146881;28;20038;-81
2022/05/02 12:16:27;;;;;;;0.40;0.40;;;27.40;99.20;;;;;;5163152;28;20049;-80
2022/05/02 12:19:00;;;;;;;0.50;0.50;;;26.50;99.90;;;;;;5178893;28;20302;-81
2022/05/02 12:21:48;;;;;;;0.75;0.75;;;27.10;99.90;;;;;;5175863;28;20135;-81
2022/05/02 12:24:34;;;;;;;0.60;0.60;;;28.70;98.90;;;;;;5183211;28;20272;-81
2022/05/02 12:27:11;;;;;;;0.93;0.93;;;30.50;97.30;;;;;;5180353;28;20049;-82
2022/05/02 12:29:43;;;;;;;1.10;1.05;;;30.80;96.70;;;;;;5180926;28;20307;-81
2022/05/02 12:32:25;;;;;;;3.30;1.27;;;30.40;96.40;;;;;;5171514;28;20029;-80
2022/05/02 12:35:03;;;;;;;0.50;0.50;;;30.50;97.00;;;;;;5163857;28;20039;-82
2022/05/02 12:37:46;;;;;;;1.08;1.05;;;29.90;96.90;;;;;;5181409;28;20156;-81
2022/05/02 12:40:24;;;;;;;0.73;0.73;;;28.70;96.80;;;;;;5163803;28;20040;-79
2022/05/02 12:43:03;;;;;;;0.50;0.50;;;27.50;97.80;;;;;;5180438;28;20030;-81
2022/05/02 12:45:45;;;;;;;0.75;0.75;;;27.30;98.10;;;;;;5162869;28;20044;-81
2022/05/02 12:48:24;;;;;;;0.75;0.50;;;28.40;97.80;;;;;;5157675;28;20264;-83
2022/05/02 12:50:58;;;;;;;1.25;1.17;;;29.20;97.60;;;;;;5147210;28;20271;-81
2022/05/02 12:56:19;;;;;;;0.95;0.93;;;31.60;96.10;;;;;;5172241;28;20097;-83
2022/05/02 13:01:49;;;;;;;0.80;0.80;;;32.30;96.00;;;;;;5185616;28;20026;-84
2022/05/02 13:04:22;;;;;;;0.75;0.75;;;33.10;94.60;;;;;;5151577;28;20349;-83
2022/05/02 13:06:58;;;;;;;0.67;0.67;;;31.70;94.90;;;;;;5177282;28;20037;-84
2022/05/02 13:09:37;;;;;;;1.60;1.50;;;31.10;95.30;;;;;;5159413;28;20034;-85
2022/05/02 13:12:11;;;;;;;1.05;0.90;;;31.60;95.30;;;;;;5154428;28;20034;-80
2022/05/02 13:14:48;;;;;;;1.00;1.00;;;33.30;94.60;;;;;;5170360;28;20045;-80
2022/05/02 13:17:22;;;;;;;0.60;0.60;;;34.60;94.00;;;;;;5149438;28;20450;-81
2022/05/02 13:19:54;;;;;;;0.60;0.60;;;33.70;92.40;;;;;;5152960;28;20052;-83
2022/05/02 13:22:25;;;;;;;0.50;0.50;;;33.60;93.80;;;;;;5151308;28;20060;-80
2022/05/02 13:25:01;;;;;;;1.05;1.05;;;32.50;94.60;;;;;;5176184;28;20369;-82
2022/05/02 13:27:43;;;;;;;0.60;0.60;;;32.20;94.10;;;;;;5162329;28;20040;-81
2022/05/02 13:30:20;;;;;;;0.63;0.63;;;32.30;93.50;;;;;;5150767;28;20287;-83
2022/05/02 13:33:06;;;;;;;0.73;0.73;;;32.50;93.20;;;;;;5155402;28;20034;-83
2022/05/02 13:35:39;;;;;;;0.82;0.82;;;33.00;93.90;;;;;;5154663;28;20025;-83
2022/05/02 13:38:25;;;;;;;0.40;0.40;;;31.90;93.50;;;;;;5134792;28;20353;-82
2022/05/02 13:41:27;;;;;;;0.43;0.43;;;29.50;94.80;;;;;;5156972;28;20044;-84
2022/05/02 13:44:08;;;;;;;0.43;0.43;;;28.00;96.10;;;;;;5133436;28;20300;-81
2022/05/02 13:47:01;;;;;;;0.70;0.70;;;27.40;96.00;;;;;;5150187;28;20046;-83
2022/05/02 13:49:49;;;;;;;0.35;0.35;;;27.10;95.70;;;;;;5153406;28;20140;-81
2022/05/02 13:52:35;;;;;;;0.40;0.40;;;26.70;95.10;;;;;;5158889;28;20030;-81
2022/05/02 13:55:13;;;;;;;0.60;0.52;;;26.50;95.20;;;;;;5171155;28;20040;-84
2022/05/02 13:58:26;;;;;;;0.47;0.47;;;26.80;95.40;;;;;;5141695;28;20037;-81
2022/05/02 14:01:39;;;;;;;0.50;0.50;;;27.40;95.50;;;;;;5149309;28;20042;-82
2022/05/02 14:04:29;;;;;;;0.50;0.50;;;29.60;93.20;;;;;;5149399;28;20038;-82
2022/05/02 14:07:12;;;;;;;0.50;0.50;;;31.10;92.40;;;;;;5160806;28;20038;-82
2022/05/02 14:09:47;;;;;;;0.50;0.50;;;32.50;91.00;;;;;;5144503;28;20040;-82
2022/05/02 14:12:24;;;;;;;0.73;0.73;;;33.10;90.50;;;;;;5150195;28;20048;-82
2022/05/02 14:15:12;;;;;;;0.47;0.47;;;33.00;90.40;;;;;;5143820;28;20316;-82
2022/05/02 14:17:46;;;;;;;0.85;0.82;;;32.30;90.30;;;;;;5160498;28;20040;-83
2022/05/02 14:20:29;;;;;;;0.63;0.63;;;33.40;90.30;;;;;;5155837;28;20034;-83
2022/05/02 14:23:10;;;;;;;0.60;0.60;;;33.80;88.10;;;;;;5157017;28;20049;-82
2022/05/02 14:25:46;;;;;;;0.88;0.82;;;34.00;86.40;;;;;;5140694;28;20064;-82
2022/05/02 14:28:20;;;;;;;0.40;0.40;;;33.50;88.20;;;;;;5141449;28;20489;-83
2022/05/02 14:31:03;;;;;;;1.60;0.90;;;33.00;88.40;;;;;;5154709;28;20046;-82
2022/05/02 14:33:39;;;;;;;0.52;0.52;;;33.90;87.40;;;;;;5158108;28;20029;-82